sensor_id;sensor_type;location;lat;lon;timestamp;P1;durP1;ratioP1;P2;durP2;ratioP2
21890;SDS011;11110;52.386;16.940;2022-07-04T00:02:12;3.63;;;2.92;;
21890;SDS011;11110;52.386;16.940;2022-07-04T00:04:40;4.68;;;3.03;;
21890;SDS011;11110;52.386;16.940;2022-07-04T00:07:09;5.30;;;2.80;;
21890;SDS011;11110;52.386;16.940;2022-07-04T00:09:37;3.40;;;2.55;;
21890;SDS011;11110;52.386;16.940;2022-07-04T00:12:06;3.30;;;3.00;;
21890;SDS011;11110;52.386;16.940;2022-07-04T00:14:36;3.60;;;3.05;;
21890;SDS011;11110;52.386;16.940;2022-07-04T00:17:07;4.35;;;3.10;;
21890;SDS011;11110;52.386;16.940;2022-07-04T00:19:38;3.58;;;2.92;;
21890;SDS011;11110;52.386;16.940;2022-07-04T00:22:06;5.00;;;3.03;;
21890;SDS011;11110;52.386;16.940;2022-07-04T00:24:34;7.70;;;3.17;;
21890;SDS011;11110;52.386;16.940;2022-07-04T00:27:03;3.80;;;2.92;;
21890;SDS011;11110;52.386;16.940;2022-07-04T00:29:32;4.30;;;3.00;;
21890;SDS011;11110;52.386;16.940;2022-07-04T00:32:00;4.07;;;3.35;;
21890;SDS011;11110;52.386;16.940;2022-07-04T00:34:29;3.42;;;3.13;;
21890;SDS011;11110;52.386;16.940;2022-07-04T00:37:00;3.78;;;3.35;;
21890;SDS011;11110;52.386;16.940;2022-07-04T00:39:28;4.68;;;3.33;;
21890;SDS011;11110;52.386;16.940;2022-07-04T00:41:57;5.03;;;3.05;;
21890;SDS011;11110;52.386;16.940;2022-07-04T00:44:26;4.30;;;3.90;;
21890;SDS011;11110;52.386;16.940;2022-07-04T00:46:57;3.80;;;3.50;;
21890;SDS011;11110;52.386;16.940;2022-07-04T00:49:33;4.90;;;3.85;;
21890;SDS011;11110;52.386;16.940;2022-07-04T00:52:04;6.30;;;3.58;;
21890;SDS011;11110;52.386;16.940;2022-07-04T00:54:33;5.03;;;3.67;;
21890;SDS011;11110;52.386;16.940;2022-07-04T00:57:03;4.55;;;3.60;;
21890;SDS011;11110;52.386;16.940;2022-07-04T00:59:32;4.13;;;3.47;;
21890;SDS011;11110;52.386;16.940;2022-07-04T01:02:00;4.22;;;3.80;;
21890;SDS011;11110;52.386;16.940;2022-07-04T01:04:32;4.85;;;3.95;;
21890;SDS011;11110;52.386;16.940;2022-07-04T01:07:00;4.70;;;4.07;;
21890;SDS011;11110;52.386;16.940;2022-07-04T01:09:31;4.93;;;4.00;;
21890;SDS011;11110;52.386;16.940;2022-07-04T01:11:59;5.50;;;3.67;;
21890;SDS011;11110;52.386;16.940;2022-07-04T01:14:27;4.13;;;3.72;;
21890;SDS011;11110;52.386;16.940;2022-07-04T01:16:56;4.40;;;3.40;;
21890;SDS011;11110;52.386;16.940;2022-07-04T01:19:24;4.45;;;4.05;;
21890;SDS011;11110;52.386;16.940;2022-07-04T01:21:54;5.32;;;3.75;;
21890;SDS011;11110;52.386;16.940;2022-07-04T01:24:22;4.20;;;3.90;;
21890;SDS011;11110;52.386;16.940;2022-07-04T01:26:56;5.03;;;4.10;;
21890;SDS011;11110;52.386;16.940;2022-07-04T01:29:24;5.07;;;4.18;;
21890;SDS011;11110;52.386;16.940;2022-07-04T01:31:53;4.70;;;3.85;;
21890;SDS011;11110;52.386;16.940;2022-07-04T01:34:22;4.10;;;3.75;;
21890;SDS011;11110;52.386;16.940;2022-07-04T01:36:50;6.78;;;4.22;;
21890;SDS011;11110;52.386;16.940;2022-07-04T01:39:25;4.97;;;3.90;;
21890;SDS011;11110;52.386;16.940;2022-07-04T01:41:54;4.70;;;4.20;;
21890;SDS011;11110;52.386;16.940;2022-07-04T01:44:23;4.93;;;4.43;;
21890;SDS011;11110;52.386;16.940;2022-07-04T01:46:51;4.95;;;4.35;;
21890;SDS011;11110;52.386;16.940;2022-07-04T01:49:20;4.00;;;3.60;;
21890;SDS011;11110;52.386;16.940;2022-07-04T01:51:49;4.60;;;4.20;;
21890;SDS011;11110;52.386;16.940;2022-07-04T01:54:19;6.25;;;4.03;;
21890;SDS011;11110;52.386;16.940;2022-07-04T01:56:48;5.68;;;4.07;;
21890;SDS011;11110;52.386;16.940;2022-07-04T01:59:16;4.60;;;4.15;;
21890;SDS011;11110;52.386;16.940;2022-07-04T02:01:45;4.43;;;4.03;;
21890;SDS011;11110;52.386;16.940;2022-07-04T02:04:12;4.97;;;4.03;;
21890;SDS011;11110;52.386;16.940;2022-07-04T02:06:40;4.70;;;4.13;;
21890;SDS011;11110;52.386;16.940;2022-07-04T02:09:09;4.70;;;4.20;;
21890;SDS011;11110;52.386;16.940;2022-07-04T02:11:46;5.05;;;4.45;;
21890;SDS011;11110;52.386;16.940;2022-07-04T02:14:32;5.82;;;4.18;;
21890;SDS011;11110;52.386;16.940;2022-07-04T02:17:01;6.65;;;4.10;;
21890;SDS011;11110;52.386;16.940;2022-07-04T02:19:30;4.85;;;4.03;;
21890;SDS011;11110;52.386;16.940;2022-07-04T02:21:59;4.85;;;4.30;;
21890;SDS011;11110;52.386;16.940;2022-07-04T02:24:28;4.60;;;4.13;;
21890;SDS011;11110;52.386;16.940;2022-07-04T02:27:00;6.85;;;4.50;;
21890;SDS011;11110;52.386;16.940;2022-07-04T02:29:28;4.90;;;4.18;;
21890;SDS011;11110;52.386;16.940;2022-07-04T02:31:57;4.25;;;3.85;;
21890;SDS011;11110;52.386;16.940;2022-07-04T02:34:25;5.43;;;4.22;;
21890;SDS011;11110;52.386;16.940;2022-07-04T02:36:54;6.82;;;4.43;;
21890;SDS011;11110;52.386;16.940;2022-07-04T02:39:22;4.68;;;4.18;;
21890;SDS011;11110;52.386;16.940;2022-07-04T02:41:50;5.88;;;4.13;;
21890;SDS011;11110;52.386;16.940;2022-07-04T02:44:24;4.63;;;4.15;;
21890;SDS011;11110;52.386;16.940;2022-07-04T02:46:52;5.05;;;4.05;;
21890;SDS011;11110;52.386;16.940;2022-07-04T02:49:21;5.80;;;4.00;;
21890;SDS011;11110;52.386;16.940;2022-07-04T02:51:49;5.70;;;3.78;;
21890;SDS011;11110;52.386;16.940;2022-07-04T02:54:18;5.00;;;4.00;;
21890;SDS011;11110;52.386;16.940;2022-07-04T02:56:46;4.90;;;3.90;;
21890;SDS011;11110;52.386;16.940;2022-07-04T02:59:15;5.13;;;3.95;;
21890;SDS011;11110;52.386;16.940;2022-07-04T03:01:44;4.20;;;3.35;;
21890;SDS011;11110;52.386;16.940;2022-07-04T03:04:13;4.65;;;3.80;;
21890;SDS011;11110;52.386;16.940;2022-07-04T03:06:42;4.07;;;3.67;;
21890;SDS011;11110;52.386;16.940;2022-07-04T03:09:10;5.90;;;4.05;;
21890;SDS011;11110;52.386;16.940;2022-07-04T03:11:38;5.03;;;3.65;;
21890;SDS011;11110;52.386;16.940;2022-07-04T03:14:09;5.22;;;4.03;;
21890;SDS011;11110;52.386;16.940;2022-07-04T03:16:37;4.97;;;4.28;;
21890;SDS011;11110;52.386;16.940;2022-07-04T03:19:07;7.15;;;4.47;;
21890;SDS011;11110;52.386;16.940;2022-07-04T03:21:36;4.55;;;4.13;;
21890;SDS011;11110;52.386;16.940;2022-07-04T03:24:04;6.32;;;4.47;;
21890;SDS011;11110;52.386;16.940;2022-07-04T03:26:35;5.00;;;4.50;;
21890;SDS011;11110;52.386;16.940;2022-07-04T03:29:04;6.03;;;3.85;;
21890;SDS011;11110;52.386;16.940;2022-07-04T03:31:32;4.85;;;3.83;;
21890;SDS011;11110;52.386;16.940;2022-07-04T03:34:01;4.43;;;3.85;;
21890;SDS011;11110;52.386;16.940;2022-07-04T03:36:31;5.80;;;4.45;;
21890;SDS011;11110;52.386;16.940;2022-07-04T03:38:59;5.43;;;4.22;;
21890;SDS011;11110;52.386;16.940;2022-07-04T03:41:27;4.65;;;4.03;;
21890;SDS011;11110;52.386;16.940;2022-07-04T03:43:56;5.15;;;4.28;;
21890;SDS011;11110;52.386;16.940;2022-07-04T03:46:24;6.50;;;4.40;;
21890;SDS011;11110;52.386;16.940;2022-07-04T03:48:53;6.10;;;4.70;;
21890;SDS011;11110;52.386;16.940;2022-07-04T03:51:22;5.47;;;4.25;;
21890;SDS011;11110;52.386;16.940;2022-07-04T03:53:52;5.97;;;4.25;;
21890;SDS011;11110;52.386;16.940;2022-07-04T03:56:20;5.20;;;4.30;;
21890;SDS011;11110;52.386;16.940;2022-07-04T03:58:50;4.55;;;4.15;;
21890;SDS011;11110;52.386;16.940;2022-07-04T04:01:20;5.38;;;4.55;;
21890;SDS011;11110;52.386;16.940;2022-07-04T04:03:49;6.22;;;4.28;;
21890;SDS011;11110;52.386;16.940;2022-07-04T04:06:35;5.07;;;4.43;;
21890;SDS011;11110;52.386;16.940;2022-07-04T04:09:05;5.20;;;4.00;;
21890;SDS011;11110;52.386;16.940;2022-07-04T04:11:36;4.80;;;4.07;;
21890;SDS011;11110;52.386;16.940;2022-07-04T04:14:05;6.38;;;4.20;;
21890;SDS011;11110;52.386;16.940;2022-07-04T04:16:34;5.60;;;4.07;;
21890;SDS011;11110;52.386;16.940;2022-07-04T04:19:02;5.28;;;4.13;;
21890;SDS011;11110;52.386;16.940;2022-07-04T04:21:33;4.93;;;4.38;;
21890;SDS011;11110;52.386;16.940;2022-07-04T04:24:01;4.25;;;3.78;;
21890;SDS011;11110;52.386;16.940;2022-07-04T04:26:32;7.78;;;5.03;;
21890;SDS011;11110;52.386;16.940;2022-07-04T04:29:01;5.85;;;3.67;;
21890;SDS011;11110;52.386;16.940;2022-07-04T04:31:29;5.40;;;3.83;;
21890;SDS011;11110;52.386;16.940;2022-07-04T04:34:03;3.45;;;3.15;;
21890;SDS011;11110;52.386;16.940;2022-07-04T04:36:31;4.47;;;3.33;;
21890;SDS011;11110;52.386;16.940;2022-07-04T04:39:01;4.07;;;3.67;;
21890;SDS011;11110;52.386;16.940;2022-07-04T04:41:30;4.53;;;3.22;;
21890;SDS011;11110;52.386;16.940;2022-07-04T04:43:59;4.35;;;3.42;;
21890;SDS011;11110;52.386;16.940;2022-07-04T04:46:29;5.25;;;3.83;;
21890;SDS011;11110;52.386;16.940;2022-07-04T04:48:57;3.85;;;3.53;;
21890;SDS011;11110;52.386;16.940;2022-07-04T04:51:27;4.53;;;3.45;;
21890;SDS011;11110;52.386;16.940;2022-07-04T04:53:58;13.20;;;6.07;;
21890;SDS011;11110;52.386;16.940;2022-07-04T04:56:26;10.85;;;4.95;;
21890;SDS011;11110;52.386;16.940;2022-07-04T04:58:55;6.80;;;4.10;;
21890;SDS011;11110;52.386;16.940;2022-07-04T05:01:32;9.45;;;4.85;;
21890;SDS011;11110;52.386;16.940;2022-07-04T05:04:09;7.72;;;4.43;;
21890;SDS011;11110;52.386;16.940;2022-07-04T05:06:39;6.88;;;5.00;;
21890;SDS011;11110;52.386;16.940;2022-07-04T05:09:07;9.82;;;4.60;;
21890;SDS011;11110;52.386;16.940;2022-07-04T05:11:37;5.15;;;4.35;;
21890;SDS011;11110;52.386;16.940;2022-07-04T05:14:05;10.55;;;5.18;;
21890;SDS011;11110;52.386;16.940;2022-07-04T05:16:35;9.85;;;5.07;;
21890;SDS011;11110;52.386;16.940;2022-07-04T05:19:03;7.45;;;4.45;;
21890;SDS011;11110;52.386;16.940;2022-07-04T05:21:32;12.43;;;5.60;;
21890;SDS011;11110;52.386;16.940;2022-07-04T05:24:01;9.63;;;4.85;;
21890;SDS011;11110;52.386;16.940;2022-07-04T05:26:29;10.63;;;5.82;;
21890;SDS011;11110;52.386;16.940;2022-07-04T05:28:57;8.68;;;4.72;;
21890;SDS011;11110;52.386;16.940;2022-07-04T05:31:26;10.68;;;5.68;;
21890;SDS011;11110;52.386;16.940;2022-07-04T05:33:55;7.07;;;4.80;;
21890;SDS011;11110;52.386;16.940;2022-07-04T05:36:31;8.43;;;5.15;;
21890;SDS011;11110;52.386;16.940;2022-07-04T05:38:59;6.32;;;4.72;;
21890;SDS011;11110;52.386;16.940;2022-07-04T05:41:28;9.88;;;4.93;;
21890;SDS011;11110;52.386;16.940;2022-07-04T05:43:56;6.95;;;4.90;;
21890;SDS011;11110;52.386;16.940;2022-07-04T05:46:25;8.55;;;5.03;;
21890;SDS011;11110;52.386;16.940;2022-07-04T05:48:55;7.53;;;4.78;;
21890;SDS011;11110;52.386;16.940;2022-07-04T05:51:24;5.50;;;4.55;;
21890;SDS011;11110;52.386;16.940;2022-07-04T05:53:53;7.00;;;4.30;;
21890;SDS011;11110;52.386;16.940;2022-07-04T05:56:24;8.25;;;4.85;;
21890;SDS011;11110;52.386;16.940;2022-07-04T05:58:52;5.15;;;4.65;;
21890;SDS011;11110;52.386;16.940;2022-07-04T06:01:21;6.05;;;4.70;;
21890;SDS011;11110;52.386;16.940;2022-07-04T06:03:49;8.85;;;4.63;;
21890;SDS011;11110;52.386;16.940;2022-07-04T06:06:19;6.63;;;4.75;;
21890;SDS011;11110;52.386;16.940;2022-07-04T06:08:47;7.82;;;5.03;;
21890;SDS011;11110;52.386;16.940;2022-07-04T06:11:16;6.65;;;4.63;;
21890;SDS011;11110;52.386;16.940;2022-07-04T06:13:45;6.63;;;4.60;;
21890;SDS011;11110;52.386;16.940;2022-07-04T06:16:13;3.95;;;3.55;;
21890;SDS011;11110;52.386;16.940;2022-07-04T06:18:42;6.80;;;4.60;;
21890;SDS011;11110;52.386;16.940;2022-07-04T06:21:10;8.65;;;5.03;;
21890;SDS011;11110;52.386;16.940;2022-07-04T06:23:40;5.20;;;4.65;;
21890;SDS011;11110;52.386;16.940;2022-07-04T06:26:08;5.65;;;4.78;;
21890;SDS011;11110;52.386;16.940;2022-07-04T06:28:37;6.97;;;4.55;;
21890;SDS011;11110;52.386;16.940;2022-07-04T06:31:13;7.22;;;5.22;;
21890;SDS011;11110;52.386;16.940;2022-07-04T06:33:42;5.68;;;4.20;;
21890;SDS011;11110;52.386;16.940;2022-07-04T06:36:37;7.72;;;4.78;;
21890;SDS011;11110;52.386;16.940;2022-07-04T06:39:07;5.65;;;4.63;;
21890;SDS011;11110;52.386;16.940;2022-07-04T06:41:35;8.32;;;5.00;;
21890;SDS011;11110;52.386;16.940;2022-07-04T06:44:03;8.52;;;4.93;;
21890;SDS011;11110;52.386;16.940;2022-07-04T06:46:38;4.43;;;4.03;;
21890;SDS011;11110;52.386;16.940;2022-07-04T06:49:07;11.40;;;4.75;;
21890;SDS011;11110;52.386;16.940;2022-07-04T06:51:35;6.13;;;4.57;;
21890;SDS011;11110;52.386;16.940;2022-07-04T06:54:04;5.55;;;4.30;;
21890;SDS011;11110;52.386;16.940;2022-07-04T06:56:34;5.30;;;4.55;;
21890;SDS011;11110;52.386;16.940;2022-07-04T06:59:02;5.07;;;4.57;;
21890;SDS011;11110;52.386;16.940;2022-07-04T07:01:32;8.52;;;5.47;;
21890;SDS011;11110;52.386;16.940;2022-07-04T07:04:00;7.18;;;4.57;;
21890;SDS011;11110;52.386;16.940;2022-07-04T07:06:28;6.18;;;4.68;;
21890;SDS011;11110;52.386;16.940;2022-07-04T07:08:57;5.95;;;4.72;;
21890;SDS011;11110;52.386;16.940;2022-07-04T07:11:25;6.97;;;5.03;;
21890;SDS011;11110;52.386;16.940;2022-07-04T07:13:55;10.23;;;6.50;;
21890;SDS011;11110;52.386;16.940;2022-07-04T07:16:24;6.65;;;4.95;;
21890;SDS011;11110;52.386;16.940;2022-07-04T07:18:52;6.65;;;4.20;;
21890;SDS011;11110;52.386;16.940;2022-07-04T07:21:20;5.68;;;4.50;;
21890;SDS011;11110;52.386;16.940;2022-07-04T07:23:49;4.45;;;4.00;;
21890;SDS011;11110;52.386;16.940;2022-07-04T07:26:17;5.25;;;4.75;;
21890;SDS011;11110;52.386;16.940;2022-07-04T07:28:45;4.85;;;3.95;;
21890;SDS011;11110;52.386;16.940;2022-07-04T07:31:15;5.78;;;4.95;;
21890;SDS011;11110;52.386;16.940;2022-07-04T07:33:43;5.03;;;4.30;;
21890;SDS011;11110;52.386;16.940;2022-07-04T07:36:12;5.68;;;3.70;;
21890;SDS011;11110;52.386;16.940;2022-07-04T07:38:40;4.70;;;4.03;;
21890;SDS011;11110;52.386;16.940;2022-07-04T07:41:09;15.82;;;7.05;;
21890;SDS011;11110;52.386;16.940;2022-07-04T07:43:38;5.20;;;3.90;;
21890;SDS011;11110;52.386;16.940;2022-07-04T07:46:07;6.55;;;4.78;;
21890;SDS011;11110;52.386;16.940;2022-07-04T07:48:37;6.07;;;4.72;;
21890;SDS011;11110;52.386;16.940;2022-07-04T07:51:05;5.20;;;4.80;;
21890;SDS011;11110;52.386;16.940;2022-07-04T07:53:34;7.18;;;4.50;;
21890;SDS011;11110;52.386;16.940;2022-07-04T07:56:22;8.00;;;4.40;;
21890;SDS011;11110;52.386;16.940;2022-07-04T07:58:51;6.28;;;3.90;;
21890;SDS011;11110;52.386;16.940;2022-07-04T08:01:20;6.28;;;4.20;;
21890;SDS011;11110;52.386;16.940;2022-07-04T08:03:49;5.03;;;4.28;;
21890;SDS011;11110;52.386;16.940;2022-07-04T08:06:39;5.60;;;4.50;;
21890;SDS011;11110;52.386;16.940;2022-07-04T08:09:27;7.03;;;4.15;;
21890;SDS011;11110;52.386;16.940;2022-07-04T08:11:56;6.75;;;4.38;;
21890;SDS011;11110;52.386;16.940;2022-07-04T08:14:25;5.53;;;4.28;;
21890;SDS011;11110;52.386;16.940;2022-07-04T08:16:54;5.90;;;4.20;;
21890;SDS011;11110;52.386;16.940;2022-07-04T08:19:24;5.68;;;4.28;;
21890;SDS011;11110;52.386;16.940;2022-07-04T08:21:53;8.60;;;4.20;;
21890;SDS011;11110;52.386;16.940;2022-07-04T08:24:42;8.75;;;5.00;;
21890;SDS011;11110;52.386;16.940;2022-07-04T08:27:11;4.45;;;3.90;;
21890;SDS011;11110;52.386;16.940;2022-07-04T08:29:40;3.55;;;3.20;;
21890;SDS011;11110;52.386;16.940;2022-07-04T08:32:10;5.00;;;3.70;;
21890;SDS011;11110;52.386;16.940;2022-07-04T08:34:39;3.85;;;3.55;;
21890;SDS011;11110;52.386;16.940;2022-07-04T08:37:09;3.58;;;3.28;;
21890;SDS011;11110;52.386;16.940;2022-07-04T08:39:38;4.63;;;3.50;;
21890;SDS011;11110;52.386;16.940;2022-07-04T08:42:09;4.53;;;2.97;;
21890;SDS011;11110;52.386;16.940;2022-07-04T08:44:46;4.55;;;3.67;;
21890;SDS011;11110;52.386;16.940;2022-07-04T08:47:16;4.97;;;3.33;;
21890;SDS011;11110;52.386;16.940;2022-07-04T08:49:49;4.00;;;3.28;;
21890;SDS011;11110;52.386;16.940;2022-07-04T08:52:23;3.20;;;2.90;;
21890;SDS011;11110;52.386;16.940;2022-07-04T08:55:02;3.80;;;3.50;;
21890;SDS011;11110;52.386;16.940;2022-07-04T08:57:49;3.95;;;3.40;;
21890;SDS011;11110;52.386;16.940;2022-07-04T09:00:37;4.20;;;3.13;;
21890;SDS011;11110;52.386;16.940;2022-07-04T09:03:07;3.85;;;3.55;;
21890;SDS011;11110;52.386;16.940;2022-07-04T09:05:37;3.35;;;3.05;;
21890;SDS011;11110;52.386;16.940;2022-07-04T09:08:06;3.05;;;2.85;;
21890;SDS011;11110;52.386;16.940;2022-07-04T09:10:34;3.17;;;2.88;;
21890;SDS011;11110;52.386;16.940;2022-07-04T09:13:03;3.80;;;3.22;;
21890;SDS011;11110;52.386;16.940;2022-07-04T09:15:38;2.97;;;2.78;;
21890;SDS011;11110;52.386;16.940;2022-07-04T09:18:18;3.42;;;2.97;;
21890;SDS011;11110;52.386;16.940;2022-07-04T09:20:49;2.80;;;2.60;;
21890;SDS011;11110;52.386;16.940;2022-07-04T09:23:20;2.63;;;2.30;;
21890;SDS011;11110;52.386;16.940;2022-07-04T09:26:05;2.63;;;2.47;;
21890;SDS011;11110;52.386;16.940;2022-07-04T09:28:40;4.88;;;2.67;;
21890;SDS011;11110;52.386;16.940;2022-07-04T09:31:13;3.40;;;2.55;;
21890;SDS011;11110;52.386;16.940;2022-07-04T09:33:51;4.15;;;2.88;;
21890;SDS011;11110;52.386;16.940;2022-07-04T09:36:22;3.40;;;3.10;;
21890;SDS011;11110;52.386;16.940;2022-07-04T09:39:04;3.42;;;3.15;;
21890;SDS011;11110;52.386;16.940;2022-07-04T09:41:49;4.20;;;3.33;;
21890;SDS011;11110;52.386;16.940;2022-07-04T09:44:19;2.88;;;2.67;;
21890;SDS011;11110;52.386;16.940;2022-07-04T09:46:48;3.13;;;2.85;;
21890;SDS011;11110;52.386;16.940;2022-07-04T09:49:17;3.38;;;3.10;;
21890;SDS011;11110;52.386;16.940;2022-07-04T09:51:47;3.00;;;2.70;;
21890;SDS011;11110;52.386;16.940;2022-07-04T09:54:18;5.93;;;3.40;;
21890;SDS011;11110;52.386;16.940;2022-07-04T09:56:54;3.70;;;3.40;;
21890;SDS011;11110;52.386;16.940;2022-07-04T09:59:24;3.20;;;3.00;;
21890;SDS011;11110;52.386;16.940;2022-07-04T10:02:05;4.47;;;2.70;;
21890;SDS011;11110;52.386;16.940;2022-07-04T10:04:41;8.20;;;3.05;;
21890;SDS011;11110;52.386;16.940;2022-07-04T10:07:12;3.28;;;2.97;;
21890;SDS011;11110;52.386;16.940;2022-07-04T10:09:58;3.42;;;3.10;;
21890;SDS011;11110;52.386;16.940;2022-07-04T10:12:28;3.20;;;3.00;;
21890;SDS011;11110;52.386;16.940;2022-07-04T10:14:56;3.90;;;3.17;;
21890;SDS011;11110;52.386;16.940;2022-07-04T10:17:25;3.72;;;3.03;;
21890;SDS011;11110;52.386;16.940;2022-07-04T10:19:53;3.33;;;2.95;;
21890;SDS011;11110;52.386;16.940;2022-07-04T10:22:23;3.47;;;3.17;;
21890;SDS011;11110;52.386;16.940;2022-07-04T10:24:53;3.90;;;2.90;;
21890;SDS011;11110;52.386;16.940;2022-07-04T10:27:21;4.70;;;3.22;;
21890;SDS011;11110;52.386;16.940;2022-07-04T10:29:50;3.67;;;3.38;;
21890;SDS011;11110;52.386;16.940;2022-07-04T10:32:18;4.22;;;2.90;;
21890;SDS011;11110;52.386;16.940;2022-07-04T10:34:47;3.55;;;3.25;;
21890;SDS011;11110;52.386;16.940;2022-07-04T10:37:16;3.42;;;3.13;;
21890;SDS011;11110;52.386;16.940;2022-07-04T10:39:46;5.90;;;3.30;;
21890;SDS011;11110;52.386;16.940;2022-07-04T10:42:21;3.10;;;2.80;;
21890;SDS011;11110;52.386;16.940;2022-07-04T10:44:51;4.07;;;3.08;;
21890;SDS011;11110;52.386;16.940;2022-07-04T10:47:23;3.75;;;3.50;;
21890;SDS011;11110;52.386;16.940;2022-07-04T10:49:55;3.88;;;3.47;;
21890;SDS011;11110;52.386;16.940;2022-07-04T10:52:23;4.43;;;2.67;;
21890;SDS011;11110;52.386;16.940;2022-07-04T10:54:53;3.53;;;2.97;;
21890;SDS011;11110;52.386;16.940;2022-07-04T10:57:22;3.97;;;3.65;;
21890;SDS011;11110;52.386;16.940;2022-07-04T11:00:03;3.20;;;3.00;;
21890;SDS011;11110;52.386;16.940;2022-07-04T11:02:34;4.93;;;3.28;;
21890;SDS011;11110;52.386;16.940;2022-07-04T11:05:04;6.78;;;3.72;;
21890;SDS011;11110;52.386;16.940;2022-07-04T11:10:30;4.38;;;3.97;;
21890;SDS011;11110;52.386;16.940;2022-07-04T11:13:14;3.10;;;2.78;;
21890;SDS011;11110;52.386;16.940;2022-07-04T11:15:59;2.85;;;2.65;;
21890;SDS011;11110;52.386;16.940;2022-07-04T11:18:29;3.13;;;2.60;;
21890;SDS011;11110;52.386;16.940;2022-07-04T11:20:58;3.10;;;2.88;;
21890;SDS011;11110;52.386;16.940;2022-07-04T11:23:26;4.25;;;3.38;;
21890;SDS011;11110;52.386;16.940;2022-07-04T11:25:55;3.90;;;3.40;;
21890;SDS011;11110;52.386;16.940;2022-07-04T11:28:30;3.35;;;3.05;;
21890;SDS011;11110;52.386;16.940;2022-07-04T11:31:11;3.38;;;2.60;;
21890;SDS011;11110;52.386;16.940;2022-07-04T11:33:42;3.67;;;3.40;;
21890;SDS011;11110;52.386;16.940;2022-07-04T11:36:12;3.60;;;3.30;;
21890;SDS011;11110;52.386;16.940;2022-07-04T11:38:49;4.68;;;3.00;;
21890;SDS011;11110;52.386;16.940;2022-07-04T11:41:22;2.95;;;2.75;;
21890;SDS011;11110;52.386;16.940;2022-07-04T11:44:10;3.92;;;3.45;;
21890;SDS011;11110;52.386;16.940;2022-07-04T11:47:04;3.60;;;3.38;;
21890;SDS011;11110;52.386;16.940;2022-07-04T11:49:41;3.55;;;3.25;;
21890;SDS011;11110;52.386;16.940;2022-07-04T11:52:11;3.30;;;3.10;;
21890;SDS011;11110;52.386;16.940;2022-07-04T11:54:41;9.13;;;3.78;;
21890;SDS011;11110;52.386;16.940;2022-07-04T11:57:22;3.90;;;3.45;;
21890;SDS011;11110;52.386;16.940;2022-07-04T11:59:52;5.47;;;3.00;;
21890;SDS011;11110;52.386;16.940;2022-07-04T12:02:23;3.40;;;3.10;;
21890;SDS011;11110;52.386;16.940;2022-07-04T12:04:52;3.13;;;2.92;;
21890;SDS011;11110;52.386;16.940;2022-07-04T12:07:22;3.15;;;2.95;;
21890;SDS011;11110;52.386;16.940;2022-07-04T12:09:52;3.30;;;3.00;;
21890;SDS011;11110;52.386;16.940;2022-07-04T12:12:23;3.90;;;3.10;;
21890;SDS011;11110;52.386;16.940;2022-07-04T12:15:04;3.13;;;2.90;;
21890;SDS011;11110;52.386;16.940;2022-07-04T12:17:34;3.10;;;2.90;;
21890;SDS011;11110;52.386;16.940;2022-07-04T12:20:10;8.70;;;4.30;;
21890;SDS011;11110;52.386;16.940;2022-07-04T12:22:41;4.90;;;3.20;;
21890;SDS011;11110;52.386;16.940;2022-07-04T12:25:21;5.32;;;3.38;;
21890;SDS011;11110;52.386;16.940;2022-07-04T12:27:53;4.10;;;3.70;;
21890;SDS011;11110;52.386;16.940;2022-07-04T12:30:23;6.40;;;3.58;;
21890;SDS011;11110;52.386;16.940;2022-07-04T12:32:52;4.55;;;3.17;;
21890;SDS011;11110;52.386;16.940;2022-07-04T12:38:14;3.72;;;3.42;;
21890;SDS011;11110;52.386;16.940;2022-07-04T12:40:50;3.83;;;2.70;;
21890;SDS011;11110;52.386;16.940;2022-07-04T12:43:22;4.05;;;3.30;;
21890;SDS011;11110;52.386;16.940;2022-07-04T12:45:52;3.75;;;3.15;;
21890;SDS011;11110;52.386;16.940;2022-07-04T12:48:24;3.63;;;3.30;;
21890;SDS011;11110;52.386;16.940;2022-07-04T12:50:54;3.65;;;3.35;;
21890;SDS011;11110;52.386;16.940;2022-07-04T12:53:23;4.63;;;4.18;;
21890;SDS011;11110;52.386;16.940;2022-07-04T12:55:51;4.05;;;3.85;;
21890;SDS011;11110;52.386;16.940;2022-07-04T12:58:20;3.58;;;3.38;;
21890;SDS011;11110;52.386;16.940;2022-07-04T13:00:49;3.55;;;3.25;;
21890;SDS011;11110;52.386;16.940;2022-07-04T13:03:18;4.40;;;4.00;;
21890;SDS011;11110;52.386;16.940;2022-07-04T13:05:47;4.80;;;3.95;;
21890;SDS011;11110;52.386;16.940;2022-07-04T13:08:15;4.28;;;3.88;;
21890;SDS011;11110;52.386;16.940;2022-07-04T13:10:44;7.18;;;4.25;;
21890;SDS011;11110;52.386;16.940;2022-07-04T13:13:12;5.50;;;4.43;;
21890;SDS011;11110;52.386;16.940;2022-07-04T13:15:42;6.50;;;4.72;;
21890;SDS011;11110;52.386;16.940;2022-07-04T13:18:10;4.60;;;4.20;;
21890;SDS011;11110;52.386;16.940;2022-07-04T13:20:38;4.88;;;4.47;;
21890;SDS011;11110;52.386;16.940;2022-07-04T13:23:07;4.25;;;3.95;;
21890;SDS011;11110;52.386;16.940;2022-07-04T13:25:45;4.70;;;4.30;;
21890;SDS011;11110;52.386;16.940;2022-07-04T13:28:13;6.93;;;3.92;;
21890;SDS011;11110;52.386;16.940;2022-07-04T13:30:43;4.78;;;3.92;;
21890;SDS011;11110;52.386;16.940;2022-07-04T13:33:12;3.65;;;3.35;;
21890;SDS011;11110;52.386;16.940;2022-07-04T13:35:40;6.65;;;3.65;;
21890;SDS011;11110;52.386;16.940;2022-07-04T13:38:10;3.85;;;3.55;;
21890;SDS011;11110;52.386;16.940;2022-07-04T13:40:38;3.88;;;3.50;;
21890;SDS011;11110;52.386;16.940;2022-07-04T13:43:09;3.92;;;3.63;;
21890;SDS011;11110;52.386;16.940;2022-07-04T13:45:38;3.92;;;3.63;;
21890;SDS011;11110;52.386;16.940;2022-07-04T13:48:09;3.47;;;3.25;;
21890;SDS011;11110;52.386;16.940;2022-07-04T13:50:38;4.85;;;3.08;;
21890;SDS011;11110;52.386;16.940;2022-07-04T13:53:07;4.28;;;3.30;;
21890;SDS011;11110;52.386;16.940;2022-07-04T13:55:36;3.15;;;2.95;;
21890;SDS011;11110;52.386;16.940;2022-07-04T13:58:06;4.72;;;3.92;;
21890;SDS011;11110;52.386;16.940;2022-07-04T14:00:35;3.58;;;3.25;;
21890;SDS011;11110;52.386;16.940;2022-07-04T14:03:05;3.67;;;3.08;;
21890;SDS011;11110;52.386;16.940;2022-07-04T14:05:34;3.65;;;3.28;;
21890;SDS011;11110;52.386;16.940;2022-07-04T14:08:03;5.07;;;3.50;;
21890;SDS011;11110;52.386;16.940;2022-07-04T14:10:32;8.75;;;4.40;;
21890;SDS011;11110;52.386;16.940;2022-07-04T14:13:01;4.22;;;3.30;;
21890;SDS011;11110;52.386;16.940;2022-07-04T14:15:31;3.70;;;3.40;;
21890;SDS011;11110;52.386;16.940;2022-07-04T14:18:00;4.10;;;3.70;;
21890;SDS011;11110;52.386;16.940;2022-07-04T14:20:29;9.00;;;4.57;;
21890;SDS011;11110;52.386;16.940;2022-07-04T14:22:59;3.35;;;3.08;;
21890;SDS011;11110;52.386;16.940;2022-07-04T14:25:27;3.50;;;3.20;;
21890;SDS011;11110;52.386;16.940;2022-07-04T14:27:56;4.30;;;3.05;;
21890;SDS011;11110;52.386;16.940;2022-07-04T14:30:24;3.58;;;3.28;;
21890;SDS011;11110;52.386;16.940;2022-07-04T14:32:52;3.75;;;2.92;;
21890;SDS011;11110;52.386;16.940;2022-07-04T14:35:21;3.72;;;3.00;;
21890;SDS011;11110;52.386;16.940;2022-07-04T14:37:49;4.05;;;3.33;;
21890;SDS011;11110;52.386;16.940;2022-07-04T14:40:22;3.53;;;3.22;;
21890;SDS011;11110;52.386;16.940;2022-07-04T14:42:50;3.58;;;3.28;;
21890;SDS011;11110;52.386;16.940;2022-07-04T14:45:19;4.95;;;3.20;;
21890;SDS011;11110;52.386;16.940;2022-07-04T14:47:47;3.15;;;2.85;;
21890;SDS011;11110;52.386;16.940;2022-07-04T14:50:15;3.42;;;3.13;;
21890;SDS011;11110;52.386;16.940;2022-07-04T14:52:44;3.33;;;3.00;;
21890;SDS011;11110;52.386;16.940;2022-07-04T14:55:12;4.45;;;3.00;;
21890;SDS011;11110;52.386;16.940;2022-07-04T14:57:42;3.13;;;2.83;;
21890;SDS011;11110;52.386;16.940;2022-07-04T15:00:11;3.50;;;3.08;;